Ireton, Iowa
Current Conditions -  °F | °C
As of 6:15 AM on Sunday 25 Jan 2015 (Local Time) from KORC Reporting Station
Light Rain Light Rain  
Wind Chill: 28°   Ceiling: 600
Heat Index: 36°   Visibility: 5mi
Dew Point: 32°   Wind: 10mph
Humidity: 87%   Direction: 360°N
Pressure: 29.81"   Gusts: 16mph
Location:  42.97°N, 96.32°W
Report Text: KORC 251215Z AUTO 36009G14KT 5SM -RA OVC006 02/00 A2981 RMK AO2
Loading
Personal Weather Stations






























Interactive Weather Map New forecast layout! Learn more

10-Day Weather Forecast

Advertisements
Track Severe Weather on mobile